createdAt,value
2023-06-30T00:00:48.834Z,30.60
2023-06-30T00:01:52.055Z,25.65
2023-06-30T00:02:57.385Z,26.38
2023-06-30T00:04:00.864Z,27.25
2023-06-30T00:05:04.712Z,28.52
2023-06-30T00:06:08.281Z,26.75
2023-06-30T00:07:12.002Z,31.63
2023-06-30T00:08:16.005Z,28.00
2023-06-30T00:09:22.427Z,27.45
2023-06-30T00:10:25.567Z,27.23
2023-06-30T00:11:29.377Z,36.20
2023-06-30T00:12:32.884Z,24.73
2023-06-30T00:13:36.670Z,27.70
2023-06-30T00:14:40.517Z,30.65
2023-06-30T00:15:44.663Z,26.42
2023-06-30T00:16:49.019Z,28.27
2023-06-30T00:17:54.729Z,35.92
2023-06-30T00:18:58.780Z,25.42
2023-06-30T00:20:07.423Z,30.00
2023-06-30T00:21:10.616Z,27.63
2023-06-30T00:22:14.372Z,27.95
2023-06-30T00:23:18.019Z,31.90
2023-06-30T00:24:21.569Z,31.83
2023-06-30T00:25:24.691Z,26.83
2023-06-30T00:26:27.758Z,29.25
2023-06-30T00:27:31.119Z,24.08
2023-06-30T00:28:34.983Z,37.08
2023-06-30T00:29:38.466Z,28.33
2023-06-30T00:30:42.022Z,34.22
2023-06-30T00:31:45.871Z,25.00
2023-06-30T00:32:49.425Z,31.67
2023-06-30T00:33:53.912Z,26.42
2023-06-30T00:34:57.283Z,32.85
2023-06-30T00:36:00.660Z,34.03
2023-06-30T00:37:05.666Z,30.88
2023-06-30T00:38:09.313Z,25.77
2023-06-30T00:39:12.514Z,35.90
2023-06-30T00:40:18.631Z,31.58
2023-06-30T00:41:22.382Z,27.23
2023-06-30T00:42:25.803Z,34.38
2023-06-30T00:43:31.073Z,30.25
2023-06-30T00:44:34.474Z,35.33
2023-06-30T00:45:38.938Z,22.80
2023-06-30T00:46:42.899Z,30.48
2023-06-30T00:47:46.546Z,35.28
2023-06-30T00:48:51.069Z,26.38
2023-06-30T00:49:54.980Z,32.35
2023-06-30T00:50:58.578Z,37.83
2023-06-30T00:52:04.626Z,31.60
2023-06-30T00:53:08.002Z,28.40
2023-06-30T00:54:11.815Z,32.92
2023-06-30T00:55:15.422Z,30.95
2023-06-30T00:56:19.837Z,29.27
2023-06-30T00:57:23.512Z,29.00
2023-06-30T00:58:27.566Z,28.27
2023-06-30T00:59:31.333Z,25.65
2023-06-30T01:00:34.873Z,29.42
2023-06-30T01:01:55.685Z,33.20
2023-06-30T01:03:27.184Z,29.23
2023-06-30T01:04:33.485Z,22.48
2023-06-30T01:05:47.973Z,34.20
2023-06-30T01:07:25.507Z,35.47
2023-06-30T01:08:52.417Z,26.83
2023-06-30T01:10:24.789Z,30.10
2023-06-30T01:11:28.795Z,29.02
2023-06-30T01:12:32.905Z,31.50
2023-06-30T01:13:36.056Z,28.40
2023-06-30T01:14:40.451Z,34.80
2023-06-30T01:15:45.857Z,31.52
2023-06-30T01:16:50.334Z,25.30
2023-06-30T01:17:56.293Z,30.45
2023-06-30T01:19:03.536Z,29.48
2023-06-30T01:20:08.470Z,19.30
2023-06-30T01:21:15.234Z,24.05
2023-06-30T01:22:43.547Z,30.73
2023-06-30T01:23:56.048Z,31.08
2023-06-30T01:25:01.486Z,28.95
2023-06-30T01:26:07.333Z,29.88
2023-06-30T01:27:14.591Z,28.80
2023-06-30T01:28:19.116Z,26.45
2023-06-30T01:29:23.125Z,29.70
2023-06-30T01:30:31.610Z,32.92
2023-06-30T01:31:35.046Z,29.23
2023-06-30T01:32:39.336Z,26.95
2023-06-30T01:33:43.372Z,32.75
2023-06-30T01:34:47.046Z,28.73
2023-06-30T01:35:50.463Z,22.20
2023-06-30T01:36:54.159Z,26.98
2023-06-30T01:37:57.987Z,27.38
2023-06-30T01:39:01.886Z,27.52
2023-06-30T01:40:10.000Z,30.67
2023-06-30T01:41:13.459Z,30.23
2023-06-30T01:42:16.971Z,27.90
2023-06-30T01:43:20.388Z,27.58
2023-06-30T01:44:25.798Z,25.60
2023-06-30T01:45:29.613Z,34.40
2023-06-30T01:46:32.810Z,25.40
2023-06-30T01:47:36.725Z,29.75
2023-06-30T01:48:40.454Z,25.60
2023-06-30T01:49:43.988Z,26.13
2023-06-30T01:50:47.508Z,24.33
2023-06-30T01:51:52.090Z,29.05
2023-06-30T01:52:55.420Z,28.30
2023-06-30T01:53:58.668Z,29.60
2023-06-30T01:55:02.498Z,27.08
2023-06-30T01:56:06.156Z,19.02
2023-06-30T01:57:09.726Z,26.13
2023-06-30T01:58:14.000Z,29.17
2023-06-30T01:59:17.988Z,24.77
2023-06-30T02:00:21.816Z,25.67
2023-06-30T02:01:25.216Z,31.63
2023-06-30T02:02:29.133Z,25.00
2023-06-30T02:03:33.177Z,28.30
2023-06-30T02:04:36.627Z,25.05
2023-06-30T02:05:40.246Z,28.15
2023-06-30T02:06:45.165Z,31.08
2023-06-30T02:07:48.922Z,30.70
2023-06-30T02:08:53.093Z,33.58
2023-06-30T02:09:56.927Z,25.65
2023-06-30T02:11:04.882Z,27.83
2023-06-30T02:12:08.315Z,24.40
2023-06-30T02:13:11.425Z,28.60
2023-06-30T02:14:14.949Z,32.25
2023-06-30T02:15:18.533Z,27.52
2023-06-30T02:16:21.996Z,29.27
2023-06-30T02:17:29.733Z,24.35
2023-06-30T02:18:33.347Z,28.30
2023-06-30T02:19:37.476Z,26.90
2023-06-30T02:20:40.648Z,27.00
2023-06-30T02:21:44.441Z,25.65
2023-06-30T02:22:47.492Z,31.90
2023-06-30T02:23:51.707Z,28.20
2023-06-30T02:24:58.661Z,24.52
2023-06-30T02:26:02.268Z,31.00
2023-06-30T02:27:11.175Z,27.58
2023-06-30T02:28:14.978Z,23.88
2023-06-30T02:29:18.802Z,32.03
2023-06-30T02:30:22.650Z,34.30
2023-06-30T02:31:27.395Z,24.45
2023-06-30T02:32:31.569Z,22.40
2023-06-30T02:33:34.589Z,17.75
2023-06-30T02:34:39.074Z,30.65
2023-06-30T02:35:43.864Z,23.65
2023-06-30T02:36:51.534Z,28.00
2023-06-30T02:37:55.050Z,23.00
2023-06-30T02:39:00.040Z,26.98
2023-06-30T02:40:03.538Z,28.13
2023-06-30T02:41:07.487Z,27.67
2023-06-30T02:42:11.020Z,26.65
2023-06-30T02:43:14.631Z,24.75
2023-06-30T02:44:18.357Z,18.55
2023-06-30T02:45:22.668Z,23.35
2023-06-30T02:46:26.836Z,32.00
2023-06-30T02:47:30.083Z,24.42
2023-06-30T02:48:33.502Z,30.73
2023-06-30T02:49:37.079Z,24.75
2023-06-30T02:50:40.837Z,23.20
2023-06-30T02:51:44.515Z,27.13
2023-06-30T02:52:48.009Z,23.95
2023-06-30T02:53:51.963Z,28.52
2023-06-30T02:54:55.523Z,25.85
2023-06-30T02:55:59.374Z,24.58
2023-06-30T02:57:02.947Z,28.38
2023-06-30T02:58:06.648Z,28.50
2023-06-30T02:59:11.841Z,24.27
2023-06-30T03:00:15.976Z,32.28
2023-06-30T03:01:23.360Z,25.55
2023-06-30T03:02:27.617Z,24.88
2023-06-30T03:03:31.322Z,23.02
2023-06-30T03:04:35.381Z,34.50
2023-06-30T03:05:39.066Z,21.98
2023-06-30T03:06:43.542Z,29.67
2023-06-30T03:07:48.422Z,31.10
2023-06-30T03:08:55.036Z,29.30
2023-06-30T03:10:02.654Z,27.23
2023-06-30T03:11:06.331Z,33.53
2023-06-30T03:12:10.554Z,29.48
2023-06-30T03:13:14.550Z,32.60
2023-06-30T03:14:18.044Z,32.92
2023-06-30T03:15:21.954Z,24.92
2023-06-30T03:16:26.320Z,26.92
2023-06-30T03:17:29.996Z,26.00
2023-06-30T03:18:33.394Z,27.73
2023-06-30T03:19:36.785Z,25.90
2023-06-30T03:20:40.562Z,30.00
2023-06-30T03:21:43.937Z,23.92
2023-06-30T03:22:48.056Z,25.55
2023-06-30T03:23:51.704Z,30.73
2023-06-30T03:24:58.495Z,26.77
2023-06-30T03:26:01.914Z,27.95
2023-06-30T03:27:06.699Z,34.22
2023-06-30T03:28:10.091Z,34.13
2023-06-30T03:29:13.411Z,22.90
2023-06-30T03:30:18.348Z,31.13
2023-06-30T03:31:24.321Z,29.58
2023-06-30T03:32:28.293Z,26.70
2023-06-30T03:33:31.961Z,35.50
2023-06-30T03:34:35.497Z,26.08
2023-06-30T03:35:39.091Z,31.42
2023-06-30T03:36:42.961Z,19.92
2023-06-30T03:37:46.920Z,28.67
2023-06-30T03:38:50.411Z,31.65
2023-06-30T03:39:53.609Z,29.38
2023-06-30T03:40:57.864Z,25.88
2023-06-30T03:42:06.611Z,24.58
2023-06-30T03:43:10.304Z,27.20
2023-06-30T03:44:15.513Z,32.20
2023-06-30T03:45:19.073Z,30.50
2023-06-30T03:46:22.272Z,26.70
2023-06-30T03:47:25.605Z,27.05
2023-06-30T03:48:29.348Z,25.58
2023-06-30T03:49:33.109Z,27.95
2023-06-30T03:50:36.828Z,20.20
2023-06-30T03:51:40.444Z,24.30
2023-06-30T03:52:43.966Z,22.75
2023-06-30T03:53:47.715Z,31.95
2023-06-30T03:54:52.657Z,30.73
2023-06-30T03:55:55.911Z,26.58
2023-06-30T03:56:59.923Z,30.85
2023-06-30T03:58:03.924Z,26.48
2023-06-30T03:59:07.698Z,33.55
2023-06-30T04:00:13.913Z,32.42
2023-06-30T04:01:17.579Z,27.65
2023-06-30T04:02:21.185Z,34.10
2023-06-30T04:03:27.511Z,23.58
2023-06-30T04:04:31.705Z,25.35
2023-06-30T04:05:35.236Z,26.95
2023-06-30T04:06:38.771Z,23.13
2023-06-30T04:07:42.330Z,25.77
2023-06-30T04:08:46.686Z,30.55
2023-06-30T04:09:50.150Z,27.95
2023-06-30T04:10:53.458Z,24.83
2023-06-30T04:11:57.505Z,26.27
2023-06-30T04:13:00.917Z,32.20
2023-06-30T04:14:04.562Z,35.38
2023-06-30T04:15:09.727Z,30.38
2023-06-30T04:16:13.430Z,22.90
2023-06-30T04:17:16.725Z,23.60
2023-06-30T04:18:19.897Z,27.05
2023-06-30T04:19:23.516Z,29.48
2023-06-30T04:20:27.745Z,27.40
2023-06-30T04:21:31.165Z,35.42
2023-06-30T04:22:34.373Z,29.52
2023-06-30T04:23:41.446Z,28.65
2023-06-30T04:24:44.566Z,26.13
2023-06-30T04:25:48.154Z,27.77
2023-06-30T04:26:51.642Z,27.92
2023-06-30T04:27:54.779Z,21.52
2023-06-30T04:28:58.555Z,26.05
2023-06-30T04:30:02.528Z,29.75
2023-06-30T04:31:07.064Z,29.35
2023-06-30T04:32:10.680Z,29.73
2023-06-30T04:33:14.434Z,29.30
2023-06-30T04:34:17.946Z,28.98
2023-06-30T04:35:27.361Z,30.30
2023-06-30T04:36:31.131Z,33.90
2023-06-30T04:37:34.794Z,28.00
2023-06-30T04:38:38.295Z,25.63
2023-06-30T04:39:41.869Z,31.83
2023-06-30T04:40:45.360Z,27.85
2023-06-30T04:41:48.973Z,27.30
2023-06-30T04:42:52.470Z,26.20
2023-06-30T04:43:56.266Z,25.15
2023-06-30T04:44:59.494Z,32.97
2023-06-30T04:46:02.804Z,22.60
2023-06-30T04:47:06.138Z,30.55
2023-06-30T04:48:09.714Z,23.50
2023-06-30T04:49:13.455Z,27.25
2023-06-30T04:50:17.226Z,28.00
2023-06-30T04:51:21.149Z,28.75
2023-06-30T04:52:24.907Z,28.63
2023-06-30T04:53:28.000Z,19.85
2023-06-30T04:54:32.913Z,29.23
2023-06-30T04:55:36.719Z,25.08
2023-06-30T04:56:40.428Z,32.80
2023-06-30T04:57:43.763Z,28.17
2023-06-30T04:58:47.196Z,29.40
2023-06-30T04:59:54.035Z,33.65
2023-06-30T05:00:58.361Z,28.13
2023-06-30T05:02:02.327Z,29.95
2023-06-30T05:03:06.052Z,29.73
2023-06-30T05:04:09.861Z,23.30
2023-06-30T05:05:14.235Z,42.90
2023-06-30T05:06:17.608Z,25.67
2023-06-30T05:07:21.258Z,23.77
2023-06-30T05:08:24.644Z,28.02
2023-06-30T05:09:28.010Z,32.72
2023-06-30T05:10:31.523Z,32.15
2023-06-30T05:11:34.867Z,30.00
2023-06-30T05:12:38.345Z,33.20
2023-06-30T05:13:41.735Z,29.05
2023-06-30T05:14:45.281Z,33.83
2023-06-30T05:15:48.486Z,30.05
2023-06-30T05:16:52.830Z,32.60
2023-06-30T05:17:56.722Z,33.15
2023-06-30T05:18:59.953Z,27.33
2023-06-30T05:20:07.212Z,30.35
2023-06-30T05:21:11.089Z,37.85
2023-06-30T05:22:14.608Z,36.20
2023-06-30T05:23:18.434Z,26.25
2023-06-30T05:24:21.872Z,28.48
2023-06-30T05:25:25.068Z,35.42
2023-06-30T05:26:28.448Z,27.30
2023-06-30T05:27:32.849Z,24.70
2023-06-30T05:28:38.892Z,32.17
2023-06-30T05:29:42.625Z,28.20
2023-06-30T05:30:45.977Z,33.83
2023-06-30T05:31:49.277Z,36.45
2023-06-30T05:32:52.573Z,23.08
2023-06-30T05:33:55.886Z,33.97
2023-06-30T05:34:59.414Z,26.42
2023-06-30T05:36:03.182Z,29.33
2023-06-30T05:37:06.715Z,33.95
2023-06-30T05:38:10.371Z,27.23
2023-06-30T05:39:14.333Z,28.02
2023-06-30T05:40:18.168Z,31.30
2023-06-30T05:41:21.689Z,29.70
2023-06-30T05:42:24.987Z,28.02
2023-06-30T05:43:28.626Z,28.00
2023-06-30T05:44:32.532Z,25.10
2023-06-30T05:45:36.310Z,25.73
2023-06-30T05:46:40.188Z,26.45
2023-06-30T05:47:43.998Z,25.70
2023-06-30T05:48:47.769Z,28.88
2023-06-30T05:49:51.448Z,24.80
2023-06-30T05:50:54.942Z,28.92
2023-06-30T05:51:58.053Z,27.58
2023-06-30T05:53:01.857Z,23.27
2023-06-30T05:54:05.334Z,29.13
2023-06-30T05:55:09.547Z,23.63
2023-06-30T05:56:13.146Z,22.40
2023-06-30T05:57:16.223Z,23.48
2023-06-30T05:58:19.189Z,22.17
2023-06-30T05:59:22.436Z,21.85
2023-06-30T06:00:26.696Z,17.60
2023-06-30T06:01:30.006Z,15.77
2023-06-30T06:02:34.825Z,20.67
2023-06-30T06:03:38.553Z,17.35
2023-06-30T06:04:42.039Z,17.95
2023-06-30T06:05:46.393Z,20.30
2023-06-30T06:06:50.363Z,16.50
2023-06-30T06:07:53.533Z,17.77
2023-06-30T06:08:56.623Z,16.70
2023-06-30T06:10:00.157Z,13.00
2023-06-30T06:11:04.061Z,19.83
2023-06-30T06:12:08.359Z,21.98
2023-06-30T06:13:11.934Z,15.95
2023-06-30T06:14:15.044Z,22.35
2023-06-30T06:15:18.062Z,17.23
2023-06-30T06:16:22.197Z,10.30
2023-06-30T06:17:25.375Z,16.70
2023-06-30T06:18:28.992Z,16.42
2023-06-30T06:19:32.735Z,15.23
2023-06-30T06:20:36.474Z,17.85
2023-06-30T06:21:39.961Z,16.67
2023-06-30T06:22:43.080Z,19.70
2023-06-30T06:23:46.960Z,20.38
2023-06-30T06:24:50.438Z,13.57
2023-06-30T06:25:53.590Z,16.60
2023-06-30T06:26:57.129Z,15.35
2023-06-30T06:28:00.841Z,15.52
2023-06-30T06:29:04.875Z,14.95
2023-06-30T06:30:08.749Z,10.75
2023-06-30T06:31:11.973Z,17.50
2023-06-30T06:32:15.383Z,18.27
2023-06-30T06:33:18.932Z,11.48
2023-06-30T06:34:22.605Z,13.13
2023-06-30T06:35:26.237Z,16.13
2023-06-30T06:36:29.631Z,15.32
2023-06-30T06:37:33.313Z,14.38
2023-06-30T06:38:36.844Z,10.20
2023-06-30T06:39:40.364Z,8.52
2023-06-30T06:40:44.044Z,13.43
2023-06-30T06:41:47.160Z,9.98
2023-06-30T06:42:53.446Z,10.38
2023-06-30T06:44:03.024Z,9.85
2023-06-30T06:45:06.889Z,21.15
2023-06-30T06:46:10.417Z,14.60
2023-06-30T06:47:50.654Z,16.65
2023-06-30T06:48:54.386Z,18.30
2023-06-30T06:49:58.036Z,13.57
2023-06-30T06:51:05.031Z,16.33
2023-06-30T06:52:08.409Z,15.80
2023-06-30T06:53:11.383Z,12.07
2023-06-30T06:54:15.077Z,13.35
2023-06-30T06:55:18.546Z,12.45
2023-06-30T06:56:22.351Z,6.97
2023-06-30T06:57:25.629Z,10.77
2023-06-30T06:58:31.754Z,15.98
2023-06-30T06:59:35.274Z,11.43
2023-06-30T07:00:38.550Z,13.73
2023-06-30T07:01:42.244Z,11.23
2023-06-30T07:02:46.246Z,15.23
2023-06-30T07:03:49.987Z,21.67
2023-06-30T07:04:53.708Z,11.05
2023-06-30T07:05:58.974Z,6.18
2023-06-30T07:07:02.299Z,12.73
2023-06-30T07:08:06.811Z,16.40
2023-06-30T07:09:10.283Z,10.43
2023-06-30T07:10:14.161Z,11.68
2023-06-30T07:11:17.234Z,11.65
2023-06-30T07:12:20.571Z,9.82
2023-06-30T07:13:23.975Z,11.35
2023-06-30T07:14:27.544Z,10.60
2023-06-30T07:15:31.483Z,12.73
2023-06-30T07:16:34.846Z,8.70
2023-06-30T07:17:38.773Z,13.10
2023-06-30T07:18:42.286Z,10.95
2023-06-30T07:19:45.899Z,11.93
2023-06-30T07:20:49.354Z,12.02
2023-06-30T07:21:53.104Z,9.27
2023-06-30T07:22:57.956Z,11.13
2023-06-30T07:24:01.338Z,12.38
2023-06-30T07:25:05.387Z,17.10
2023-06-30T07:26:08.930Z,12.25
2023-06-30T07:27:12.383Z,12.52
2023-06-30T07:28:16.017Z,12.13
2023-06-30T07:29:19.836Z,11.88
2023-06-30T07:30:25.220Z,12.57
2023-06-30T07:31:32.595Z,10.45
2023-06-30T07:32:36.239Z,8.45
2023-06-30T07:33:39.549Z,13.48
2023-06-30T07:34:42.630Z,7.47
2023-06-30T07:35:46.875Z,9.23
2023-06-30T07:36:50.601Z,8.43
2023-06-30T07:37:53.873Z,13.65
2023-06-30T07:38:57.249Z,8.40
2023-06-30T07:40:12.273Z,10.43
2023-06-30T07:41:20.082Z,13.50
2023-06-30T07:42:23.670Z,7.43
2023-06-30T07:43:27.205Z,8.93
2023-06-30T07:44:30.550Z,6.65
2023-06-30T07:45:34.317Z,8.75
2023-06-30T07:46:37.569Z,10.10
2023-06-30T07:47:44.629Z,11.13
2023-06-30T07:48:47.775Z,9.25
2023-06-30T07:49:51.132Z,11.60
2023-06-30T07:51:07.850Z,12.30
2023-06-30T07:52:13.305Z,10.32
2023-06-30T07:53:17.040Z,8.38
2023-06-30T07:54:21.688Z,11.07
2023-06-30T07:55:25.115Z,8.73
2023-06-30T07:56:28.964Z,9.93
2023-06-30T07:57:32.390Z,11.50
2023-06-30T07:58:35.911Z,9.32
2023-06-30T07:59:39.345Z,10.65
2023-06-30T08:00:43.022Z,11.20
2023-06-30T08:01:46.419Z,13.63
2023-06-30T08:02:49.980Z,9.25
2023-06-30T08:03:53.876Z,17.80
2023-06-30T08:04:57.274Z,14.95
2023-06-30T08:06:01.064Z,13.32
2023-06-30T08:07:06.178Z,10.32
2023-06-30T08:08:10.100Z,13.00
2023-06-30T08:09:13.718Z,11.82
2023-06-30T08:10:17.125Z,10.43
2023-06-30T08:11:20.611Z,14.02
2023-06-30T08:12:24.248Z,13.80
2023-06-30T08:13:28.095Z,10.88
2023-06-30T08:14:31.706Z,12.68
2023-06-30T08:15:34.906Z,14.48
2023-06-30T08:16:38.300Z,19.00
2023-06-30T08:17:54.722Z,14.57
2023-06-30T08:19:01.898Z,17.35
2023-06-30T08:20:05.742Z,14.90
2023-06-30T08:21:09.087Z,15.85
2023-06-30T08:22:15.900Z,18.17
2023-06-30T08:23:19.925Z,15.38
2023-06-30T08:24:24.528Z,13.80
2023-06-30T08:25:27.961Z,16.35
2023-06-30T08:26:31.610Z,17.13
2023-06-30T08:27:35.061Z,19.73
2023-06-30T08:28:38.918Z,14.68
2023-06-30T08:29:42.959Z,13.02
2023-06-30T08:30:45.983Z,16.58
2023-06-30T08:31:49.232Z,14.18
2023-06-30T08:32:52.540Z,16.23
2023-06-30T08:33:56.032Z,12.07
2023-06-30T08:34:59.351Z,15.27
2023-06-30T08:36:03.606Z,11.63
2023-06-30T08:37:07.801Z,13.35
2023-06-30T08:38:11.589Z,9.40
2023-06-30T08:39:15.419Z,10.27
2023-06-30T08:40:28.652Z,11.18
2023-06-30T08:41:32.118Z,14.93
2023-06-30T08:42:38.088Z,11.40
2023-06-30T08:43:41.434Z,12.02
2023-06-30T08:44:48.169Z,20.45
2023-06-30T08:45:51.440Z,12.48
2023-06-30T08:46:55.166Z,20.13
2023-06-30T08:48:04.386Z,14.90
2023-06-30T08:49:07.715Z,11.73
2023-06-30T08:50:11.339Z,11.35
2023-06-30T08:51:17.293Z,12.25
2023-06-30T08:52:20.834Z,9.60
2023-06-30T08:53:25.362Z,19.65
2023-06-30T08:54:33.248Z,11.23
2023-06-30T08:55:36.263Z,18.63
2023-06-30T08:56:41.971Z,19.80
2023-06-30T08:57:45.728Z,16.23
2023-06-30T08:58:49.280Z,18.02
2023-06-30T08:59:53.068Z,15.40
2023-06-30T09:00:57.703Z,11.75
2023-06-30T09:02:01.671Z,19.33
2023-06-30T09:03:07.940Z,16.30
2023-06-30T09:04:11.806Z,14.73
2023-06-30T09:05:16.059Z,11.05
2023-06-30T09:06:19.883Z,12.70
2023-06-30T09:07:28.081Z,11.27
2023-06-30T09:08:58.250Z,11.95
2023-06-30T09:10:05.232Z,13.68
2023-06-30T09:11:10.305Z,17.08
2023-06-30T09:12:14.368Z,11.45
2023-06-30T09:13:21.933Z,14.23
2023-06-30T09:14:25.834Z,12.63
2023-06-30T09:15:28.789Z,15.65
2023-06-30T09:16:32.776Z,16.10
2023-06-30T09:17:36.070Z,11.68
2023-06-30T09:18:39.441Z,12.65
2023-06-30T09:19:42.887Z,10.82
2023-06-30T09:20:46.341Z,15.65
2023-06-30T09:21:50.405Z,14.95
2023-06-30T09:22:57.093Z,13.55
2023-06-30T09:24:00.930Z,12.02
2023-06-30T09:25:05.932Z,14.57
2023-06-30T09:26:16.091Z,9.57
2023-06-30T09:27:20.302Z,10.50
2023-06-30T09:28:23.427Z,16.80
2023-06-30T09:29:27.262Z,13.23
2023-06-30T09:30:34.451Z,10.73
2023-06-30T09:31:38.970Z,14.32
2023-06-30T09:32:43.239Z,9.93
2023-06-30T09:33:50.107Z,15.32
2023-06-30T09:34:56.124Z,10.45
2023-06-30T09:36:00.787Z,11.82
2023-06-30T09:37:03.932Z,8.55
2023-06-30T09:38:17.595Z,15.48
2023-06-30T09:39:21.266Z,15.75
2023-06-30T09:40:27.678Z,10.45
2023-06-30T09:41:31.447Z,10.98
2023-06-30T09:42:36.055Z,10.93
2023-06-30T09:43:39.476Z,14.10
2023-06-30T09:44:43.150Z,9.52
2023-06-30T09:45:48.041Z,13.27
2023-06-30T09:46:55.691Z,10.60
2023-06-30T09:47:59.460Z,9.48
2023-06-30T09:49:06.894Z,9.60
2023-06-30T09:50:12.197Z,9.65
2023-06-30T09:51:20.869Z,13.13
2023-06-30T09:52:29.496Z,15.32
2023-06-30T09:53:39.180Z,11.45
2023-06-30T09:54:44.863Z,14.20
2023-06-30T09:55:52.830Z,9.25
2023-06-30T09:57:03.217Z,9.93
2023-06-30T09:58:06.141Z,10.88
2023-06-30T09:59:09.193Z,12.57
2023-06-30T10:00:25.918Z,9.40
2023-06-30T10:01:38.963Z,11.93
2023-06-30T10:02:42.658Z,9.73
2023-06-30T10:03:50.420Z,11.48
2023-06-30T10:04:53.427Z,10.75
2023-06-30T10:05:57.389Z,9.15
2023-06-30T10:07:01.489Z,11.82
2023-06-30T10:08:05.089Z,8.70
2023-06-30T10:09:08.555Z,11.63
2023-06-30T10:10:13.132Z,10.57
2023-06-30T10:11:17.002Z,9.30
2023-06-30T10:12:20.664Z,11.43
2023-06-30T10:13:24.144Z,9.55
2023-06-30T10:14:36.260Z,8.52
2023-06-30T10:15:39.623Z,6.40
2023-06-30T10:16:42.503Z,12.32
2023-06-30T10:17:45.917Z,10.43
2023-06-30T10:18:49.668Z,10.80
2023-06-30T10:19:53.327Z,8.38
2023-06-30T10:20:56.711Z,6.72
2023-06-30T10:21:59.974Z,14.32
2023-06-30T10:23:03.684Z,8.15
2023-06-30T10:24:07.280Z,11.05
2023-06-30T10:25:10.638Z,13.15
2023-06-30T10:26:15.097Z,10.77
2023-06-30T10:27:20.043Z,12.82
2023-06-30T10:28:23.134Z,12.98
2023-06-30T10:29:26.853Z,9.68
2023-06-30T10:30:30.400Z,8.02
2023-06-30T10:31:34.096Z,5.95
2023-06-30T10:32:37.932Z,11.55
2023-06-30T10:33:41.724Z,11.20
2023-06-30T10:34:45.030Z,14.85
2023-06-30T10:35:48.927Z,8.88
2023-06-30T10:36:52.643Z,10.52
2023-06-30T10:37:57.577Z,8.55
2023-06-30T10:39:01.545Z,9.10
2023-06-30T10:40:29.182Z,9.18
2023-06-30T10:41:32.978Z,9.02
2023-06-30T10:42:39.153Z,9.70
2023-06-30T10:44:03.757Z,9.45
2023-06-30T10:45:08.687Z,11.60
2023-06-30T10:46:12.823Z,8.88
2023-06-30T10:47:16.525Z,8.60
2023-06-30T10:48:19.782Z,8.80
2023-06-30T10:49:35.524Z,6.70
2023-06-30T10:50:43.084Z,8.95
2023-06-30T10:51:48.406Z,8.27
2023-06-30T10:52:52.750Z,8.32
2023-06-30T10:53:56.228Z,11.05
2023-06-30T10:55:06.631Z,15.75
2023-06-30T10:56:10.949Z,6.22
2023-06-30T10:57:21.981Z,6.05
2023-06-30T10:58:25.631Z,7.93
2023-06-30T10:59:29.223Z,7.28
2023-06-30T11:00:33.276Z,7.97
2023-06-30T11:01:39.299Z,7.38
2023-06-30T11:03:01.476Z,8.18
2023-06-30T11:04:10.813Z,9.75
2023-06-30T11:05:23.955Z,9.48
2023-06-30T11:06:27.381Z,13.05
2023-06-30T11:07:31.268Z,9.68
2023-06-30T11:08:34.903Z,8.80
2023-06-30T11:09:52.483Z,9.75
2023-06-30T11:11:03.159Z,8.02
2023-06-30T11:12:06.781Z,8.52
2023-06-30T11:13:13.734Z,5.90
2023-06-30T11:14:23.250Z,7.70
2023-06-30T11:15:53.336Z,11.93
2023-06-30T11:17:09.140Z,7.13
2023-06-30T11:18:16.967Z,9.38
2023-06-30T11:19:26.869Z,6.43
2023-06-30T11:20:33.707Z,7.90
2023-06-30T11:21:41.275Z,5.20
2023-06-30T11:23:17.797Z,7.22
2023-06-30T11:24:21.431Z,10.27
2023-06-30T11:25:24.657Z,13.63
2023-06-30T11:26:28.437Z,6.47
2023-06-30T11:27:32.491Z,8.00
2023-06-30T11:28:35.855Z,7.05
2023-06-30T11:29:39.528Z,7.60
2023-06-30T11:30:43.119Z,8.40
2023-06-30T11:31:46.327Z,11.07
2023-06-30T11:32:49.320Z,8.88
2023-06-30T11:33:52.659Z,6.53
2023-06-30T11:34:57.691Z,6.55
2023-06-30T11:36:01.183Z,4.63
2023-06-30T11:37:07.794Z,8.48
2023-06-30T11:38:10.782Z,8.40
2023-06-30T11:39:15.913Z,9.70
2023-06-30T11:40:20.090Z,9.88
2023-06-30T11:41:23.916Z,5.15
2023-06-30T11:42:27.479Z,9.50
2023-06-30T11:43:34.206Z,12.32
2023-06-30T11:44:38.651Z,8.88
2023-06-30T11:45:42.193Z,8.57
2023-06-30T11:46:45.862Z,4.10
2023-06-30T11:47:56.051Z,9.30
2023-06-30T11:48:59.532Z,6.28
2023-06-30T11:50:09.493Z,7.57
2023-06-30T11:51:15.306Z,9.20
2023-06-30T11:52:20.442Z,6.65
2023-06-30T11:53:24.320Z,7.03
2023-06-30T11:54:32.253Z,6.38
2023-06-30T11:55:35.898Z,10.30
2023-06-30T11:56:42.259Z,7.38
2023-06-30T11:57:49.151Z,7.43
2023-06-30T11:58:52.926Z,7.78
2023-06-30T11:59:56.662Z,5.10
2023-06-30T12:01:00.285Z,7.68
2023-06-30T12:02:07.600Z,12.18
2023-06-30T12:03:10.700Z,11.23
2023-06-30T12:04:13.870Z,4.57
2023-06-30T12:05:18.897Z,6.95
2023-06-30T12:06:26.652Z,9.63
2023-06-30T12:07:29.825Z,10.15
2023-06-30T12:08:32.881Z,9.32
2023-06-30T12:09:36.735Z,7.60
2023-06-30T12:10:40.807Z,7.65
2023-06-30T12:11:44.731Z,9.23
2023-06-30T12:12:58.568Z,5.68
2023-06-30T12:14:08.627Z,6.07
2023-06-30T12:16:16.409Z,6.22
2023-06-30T12:17:20.627Z,10.00
2023-06-30T12:18:39.509Z,11.90
2023-06-30T12:19:43.470Z,6.93
2023-06-30T12:20:46.862Z,6.47
2023-06-30T12:22:01.503Z,10.15
2023-06-30T12:23:06.177Z,14.63
2023-06-30T12:24:09.840Z,5.60
2023-06-30T12:25:14.310Z,5.90
2023-06-30T12:26:17.957Z,5.32
2023-06-30T12:27:21.626Z,7.25
2023-06-30T12:28:24.717Z,7.43
2023-06-30T12:29:32.966Z,6.93
2023-06-30T12:30:36.552Z,11.95
2023-06-30T12:31:43.731Z,9.77
2023-06-30T12:32:47.314Z,12.48
2023-06-30T12:33:55.546Z,9.55
2023-06-30T12:35:07.152Z,9.10
2023-06-30T12:36:11.536Z,9.75
2023-06-30T12:37:17.129Z,14.27
2023-06-30T12:38:20.934Z,7.80
2023-06-30T12:39:24.229Z,5.78
2023-06-30T12:40:29.058Z,9.93
2023-06-30T12:41:32.554Z,8.95
2023-06-30T12:42:36.387Z,8.20
2023-06-30T12:43:40.169Z,9.30
2023-06-30T12:44:43.672Z,5.75
2023-06-30T12:45:47.559Z,7.88
2023-06-30T12:47:09.730Z,9.70
2023-06-30T12:48:12.927Z,8.95
2023-06-30T12:49:16.042Z,7.22
2023-06-30T12:50:21.013Z,7.97
2023-06-30T12:51:24.238Z,10.15
2023-06-30T12:52:27.697Z,15.13
2023-06-30T12:53:31.816Z,8.48
2023-06-30T12:54:35.352Z,6.70
2023-06-30T12:55:38.896Z,7.82
2023-06-30T12:56:42.426Z,12.13
2023-06-30T12:57:45.796Z,11.43
2023-06-30T12:58:49.443Z,9.20
2023-06-30T12:59:53.201Z,8.93
2023-06-30T13:00:59.071Z,8.30
2023-06-30T13:02:02.362Z,13.73
2023-06-30T13:03:06.881Z,10.82
2023-06-30T13:04:10.670Z,7.90
2023-06-30T13:05:14.166Z,11.27
2023-06-30T13:06:17.386Z,6.05
2023-06-30T13:07:20.940Z,11.93
2023-06-30T13:08:24.424Z,8.18
2023-06-30T13:09:28.517Z,9.43
2023-06-30T13:10:32.073Z,11.85
2023-06-30T13:11:35.823Z,10.30
2023-06-30T13:12:42.470Z,12.45
2023-06-30T13:13:46.167Z,9.35
2023-06-30T13:14:49.507Z,9.23
2023-06-30T13:15:54.088Z,10.63
2023-06-30T13:16:57.153Z,6.78
2023-06-30T13:18:00.617Z,13.45
2023-06-30T13:19:04.683Z,11.60
2023-06-30T13:20:10.031Z,9.98
2023-06-30T13:21:14.168Z,9.52
2023-06-30T13:22:17.729Z,11.07
2023-06-30T13:23:35.996Z,9.30
2023-06-30T13:24:40.857Z,17.23
2023-06-30T13:25:44.821Z,13.35
2023-06-30T13:26:49.171Z,10.32
2023-06-30T13:27:52.878Z,10.80
2023-06-30T13:28:56.770Z,9.73
2023-06-30T13:30:00.868Z,10.48
2023-06-30T13:31:06.282Z,8.35
2023-06-30T13:32:10.028Z,12.77
2023-06-30T13:33:13.370Z,14.48
2023-06-30T13:34:16.753Z,9.25
2023-06-30T13:35:21.029Z,8.65
2023-06-30T13:36:26.025Z,8.88
2023-06-30T13:37:30.921Z,7.15
2023-06-30T13:38:34.137Z,11.15
2023-06-30T13:39:40.511Z,11.30
2023-06-30T13:40:44.570Z,12.38
2023-06-30T13:41:49.048Z,7.65
2023-06-30T13:42:52.561Z,8.40
2023-06-30T13:43:55.658Z,10.85
2023-06-30T13:44:59.355Z,10.45
2023-06-30T13:46:03.348Z,8.07
2023-06-30T13:47:07.219Z,10.15
2023-06-30T13:48:10.478Z,14.02
2023-06-30T13:49:14.313Z,6.47
2023-06-30T13:50:17.967Z,8.05
2023-06-30T13:51:22.761Z,7.55
2023-06-30T13:52:25.901Z,12.68
2023-06-30T13:53:28.796Z,11.57
2023-06-30T13:54:32.702Z,15.45
2023-06-30T13:55:36.331Z,10.07
2023-06-30T13:56:39.789Z,7.28
2023-06-30T13:57:42.968Z,9.63
2023-06-30T13:58:46.511Z,11.82
2023-06-30T13:59:49.785Z,10.30
2023-06-30T14:00:53.493Z,13.30
2023-06-30T14:01:57.096Z,9.25
2023-06-30T14:03:00.445Z,12.75
2023-06-30T14:04:04.548Z,11.10